sensor_id;sensor_type;location;lat;lon;timestamp;P1;durP1;ratioP1;P2;durP2;ratioP2
325;SDS011;150;52.352;14.058;2023-06-26T00:00:05;6.90;;;5.77;;
325;SDS011;150;52.352;14.058;2023-06-26T00:02:33;7.85;;;4.75;;
325;SDS011;150;52.352;14.058;2023-06-26T00:05:00;7.97;;;5.97;;
325;SDS011;150;52.352;14.058;2023-06-26T00:07:28;6.25;;;5.53;;
325;SDS011;150;52.352;14.058;2023-06-26T00:09:55;6.88;;;5.72;;
325;SDS011;150;52.352;14.058;2023-06-26T00:12:22;7.65;;;5.68;;
325;SDS011;150;52.352;14.058;2023-06-26T00:14:49;7.50;;;5.50;;
325;SDS011;150;52.352;14.058;2023-06-26T00:17:17;5.90;;;4.95;;
325;SDS011;150;52.352;14.058;2023-06-26T00:19:44;7.07;;;6.07;;
325;SDS011;150;52.352;14.058;2023-06-26T00:22:11;6.28;;;5.55;;
325;SDS011;150;52.352;14.058;2023-06-26T00:24:37;6.68;;;5.85;;
325;SDS011;150;52.352;14.058;2023-06-26T00:27:04;9.25;;;6.13;;
325;SDS011;150;52.352;14.058;2023-06-26T00:29:32;8.63;;;5.82;;
325;SDS011;150;52.352;14.058;2023-06-26T00:32:00;5.70;;;4.80;;
325;SDS011;150;52.352;14.058;2023-06-26T00:34:28;7.53;;;6.38;;
325;SDS011;150;52.352;14.058;2023-06-26T00:36:54;6.75;;;6.00;;
325;SDS011;150;52.352;14.058;2023-06-26T00:39:21;8.88;;;6.38;;
325;SDS011;150;52.352;14.058;2023-06-26T00:41:50;6.80;;;5.90;;
325;SDS011;150;52.352;14.058;2023-06-26T00:44:19;7.85;;;6.43;;
325;SDS011;150;52.352;14.058;2023-06-26T00:46:46;7.50;;;6.20;;
325;SDS011;150;52.352;14.058;2023-06-26T00:49:13;7.30;;;6.68;;
325;SDS011;150;52.352;14.058;2023-06-26T00:51:41;9.30;;;6.00;;
325;SDS011;150;52.352;14.058;2023-06-26T00:54:09;6.90;;;5.93;;
325;SDS011;150;52.352;14.058;2023-06-26T00:56:36;8.33;;;6.20;;
325;SDS011;150;52.352;14.058;2023-06-26T00:59:03;7.53;;;6.10;;
325;SDS011;150;52.352;14.058;2023-06-26T01:01:30;7.25;;;5.53;;
325;SDS011;150;52.352;14.058;2023-06-26T01:03:56;8.52;;;6.50;;
325;SDS011;150;52.352;14.058;2023-06-26T01:06:23;8.47;;;5.80;;
325;SDS011;150;52.352;14.058;2023-06-26T01:08:55;7.30;;;6.05;;
325;SDS011;150;52.352;14.058;2023-06-26T01:11:23;9.43;;;6.28;;
325;SDS011;150;52.352;14.058;2023-06-26T01:13:50;6.57;;;5.70;;
325;SDS011;150;52.352;14.058;2023-06-26T01:16:19;7.88;;;5.97;;
325;SDS011;150;52.352;14.058;2023-06-26T01:18:46;7.20;;;6.40;;
325;SDS011;150;52.352;14.058;2023-06-26T01:21:14;7.18;;;5.80;;
325;SDS011;150;52.352;14.058;2023-06-26T01:23:47;6.32;;;5.85;;
325;SDS011;150;52.352;14.058;2023-06-26T01:26:26;7.13;;;6.10;;
325;SDS011;150;52.352;14.058;2023-06-26T01:28:55;7.75;;;7.35;;
325;SDS011;150;52.352;14.058;2023-06-26T01:31:24;9.23;;;6.78;;
325;SDS011;150;52.352;14.058;2023-06-26T01:33:58;9.80;;;6.70;;
325;SDS011;150;52.352;14.058;2023-06-26T01:36:27;8.25;;;6.85;;
325;SDS011;150;52.352;14.058;2023-06-26T01:38:53;8.32;;;6.80;;
325;SDS011;150;52.352;14.058;2023-06-26T01:41:20;8.80;;;7.22;;
325;SDS011;150;52.352;14.058;2023-06-26T01:44:02;8.50;;;6.88;;
325;SDS011;150;52.352;14.058;2023-06-26T01:46:39;8.90;;;6.82;;
325;SDS011;150;52.352;14.058;2023-06-26T01:49:15;8.15;;;7.43;;
325;SDS011;150;52.352;14.058;2023-06-26T01:51:50;8.05;;;7.38;;
325;SDS011;150;52.352;14.058;2023-06-26T01:54:28;10.33;;;7.83;;
325;SDS011;150;52.352;14.058;2023-06-26T01:56:58;8.45;;;7.53;;
325;SDS011;150;52.352;14.058;2023-06-26T01:59:27;9.15;;;7.10;;
325;SDS011;150;52.352;14.058;2023-06-26T02:01:57;7.75;;;7.35;;
325;SDS011;150;52.352;14.058;2023-06-26T02:04:26;10.40;;;7.90;;
325;SDS011;150;52.352;14.058;2023-06-26T02:06:53;9.85;;;7.55;;
325;SDS011;150;52.352;14.058;2023-06-26T02:09:20;8.02;;;7.63;;
325;SDS011;150;52.352;14.058;2023-06-26T02:11:46;8.13;;;7.00;;
325;SDS011;150;52.352;14.058;2023-06-26T02:14:13;8.47;;;7.40;;
325;SDS011;150;52.352;14.058;2023-06-26T02:16:45;7.00;;;6.60;;
325;SDS011;150;52.352;14.058;2023-06-26T02:19:11;8.95;;;8.15;;
325;SDS011;150;52.352;14.058;2023-06-26T02:21:46;11.15;;;8.13;;
325;SDS011;150;52.352;14.058;2023-06-26T02:24:13;9.35;;;8.40;;
325;SDS011;150;52.352;14.058;2023-06-26T02:26:40;9.70;;;7.60;;
325;SDS011;150;52.352;14.058;2023-06-26T02:29:07;10.27;;;7.85;;
325;SDS011;150;52.352;14.058;2023-06-26T02:31:33;10.40;;;7.20;;
325;SDS011;150;52.352;14.058;2023-06-26T02:34:01;10.30;;;8.50;;
325;SDS011;150;52.352;14.058;2023-06-26T02:36:28;8.85;;;7.22;;
325;SDS011;150;52.352;14.058;2023-06-26T02:38:55;11.30;;;8.00;;
325;SDS011;150;52.352;14.058;2023-06-26T02:41:22;12.13;;;9.73;;
325;SDS011;150;52.352;14.058;2023-06-26T02:43:48;9.48;;;8.95;;
325;SDS011;150;52.352;14.058;2023-06-26T02:46:15;8.60;;;7.32;;
325;SDS011;150;52.352;14.058;2023-06-26T02:48:42;8.23;;;7.18;;
325;SDS011;150;52.352;14.058;2023-06-26T02:51:10;8.65;;;6.97;;
325;SDS011;150;52.352;14.058;2023-06-26T02:53:36;10.55;;;7.70;;
325;SDS011;150;52.352;14.058;2023-06-26T02:56:03;9.50;;;8.10;;
325;SDS011;150;52.352;14.058;2023-06-26T02:58:30;9.60;;;8.18;;
325;SDS011;150;52.352;14.058;2023-06-26T03:00:57;8.88;;;8.32;;
325;SDS011;150;52.352;14.058;2023-06-26T03:03:24;9.63;;;9.10;;
325;SDS011;150;52.352;14.058;2023-06-26T03:05:50;9.32;;;8.88;;
325;SDS011;150;52.352;14.058;2023-06-26T03:08:19;12.07;;;8.50;;
325;SDS011;150;52.352;14.058;2023-06-26T03:10:45;8.88;;;8.13;;
325;SDS011;150;52.352;14.058;2023-06-26T03:13:12;9.75;;;8.05;;
325;SDS011;150;52.352;14.058;2023-06-26T03:15:38;9.82;;;9.23;;
325;SDS011;150;52.352;14.058;2023-06-26T03:18:05;10.50;;;9.95;;
325;SDS011;150;52.352;14.058;2023-06-26T03:20:31;13.70;;;11.10;;
325;SDS011;150;52.352;14.058;2023-06-26T03:22:58;13.60;;;10.02;;
325;SDS011;150;52.352;14.058;2023-06-26T03:25:26;11.35;;;9.80;;
325;SDS011;150;52.352;14.058;2023-06-26T03:27:53;10.20;;;9.10;;
325;SDS011;150;52.352;14.058;2023-06-26T03:30:19;10.97;;;9.30;;
325;SDS011;150;52.352;14.058;2023-06-26T03:32:46;9.20;;;8.57;;
325;SDS011;150;52.352;14.058;2023-06-26T03:35:12;11.15;;;9.15;;
325;SDS011;150;52.352;14.058;2023-06-26T03:37:39;9.87;;;8.90;;
325;SDS011;150;52.352;14.058;2023-06-26T03:40:07;11.10;;;10.18;;
325;SDS011;150;52.352;14.058;2023-06-26T03:42:35;9.48;;;8.68;;
325;SDS011;150;52.352;14.058;2023-06-26T03:45:02;8.88;;;7.68;;
325;SDS011;150;52.352;14.058;2023-06-26T03:47:29;9.40;;;8.52;;
325;SDS011;150;52.352;14.058;2023-06-26T03:49:59;9.30;;;8.70;;
325;SDS011;150;52.352;14.058;2023-06-26T03:52:25;10.25;;;9.05;;
325;SDS011;150;52.352;14.058;2023-06-26T03:54:52;9.20;;;8.70;;
325;SDS011;150;52.352;14.058;2023-06-26T03:57:21;8.65;;;8.15;;
325;SDS011;150;52.352;14.058;2023-06-26T03:59:49;12.50;;;10.40;;
325;SDS011;150;52.352;14.058;2023-06-26T04:02:18;11.50;;;9.75;;
325;SDS011;150;52.352;14.058;2023-06-26T04:04:44;11.70;;;9.98;;
325;SDS011;150;52.352;14.058;2023-06-26T04:07:11;11.53;;;9.27;;
325;SDS011;150;52.352;14.058;2023-06-26T04:09:41;11.57;;;8.80;;
325;SDS011;150;52.352;14.058;2023-06-26T04:12:07;9.30;;;8.80;;
325;SDS011;150;52.352;14.058;2023-06-26T04:14:34;11.25;;;9.10;;
325;SDS011;150;52.352;14.058;2023-06-26T04:17:02;11.85;;;10.25;;
325;SDS011;150;52.352;14.058;2023-06-26T04:19:29;11.60;;;9.60;;
325;SDS011;150;52.352;14.058;2023-06-26T04:21:56;11.68;;;8.30;;
325;SDS011;150;52.352;14.058;2023-06-26T04:24:23;12.77;;;9.30;;
325;SDS011;150;52.352;14.058;2023-06-26T04:26:50;12.40;;;9.30;;
325;SDS011;150;52.352;14.058;2023-06-26T04:29:16;12.38;;;10.38;;
325;SDS011;150;52.352;14.058;2023-06-26T04:31:43;10.75;;;9.20;;
325;SDS011;150;52.352;14.058;2023-06-26T04:34:12;10.57;;;10.05;;
325;SDS011;150;52.352;14.058;2023-06-26T04:36:39;10.32;;;9.35;;
325;SDS011;150;52.352;14.058;2023-06-26T04:39:06;9.63;;;9.13;;
325;SDS011;150;52.352;14.058;2023-06-26T04:41:32;11.93;;;9.02;;
325;SDS011;150;52.352;14.058;2023-06-26T04:43:59;11.52;;;10.68;;
325;SDS011;150;52.352;14.058;2023-06-26T04:46:26;13.25;;;9.57;;
325;SDS011;150;52.352;14.058;2023-06-26T04:48:53;11.27;;;9.10;;
325;SDS011;150;52.352;14.058;2023-06-26T04:51:24;11.32;;;9.55;;
325;SDS011;150;52.352;14.058;2023-06-26T04:53:52;12.77;;;9.65;;
325;SDS011;150;52.352;14.058;2023-06-26T04:56:18;10.98;;;9.70;;
325;SDS011;150;52.352;14.058;2023-06-26T04:58:48;10.88;;;9.32;;
325;SDS011;150;52.352;14.058;2023-06-26T05:01:15;11.02;;;10.45;;
325;SDS011;150;52.352;14.058;2023-06-26T05:03:42;12.33;;;9.97;;
325;SDS011;150;52.352;14.058;2023-06-26T05:06:10;14.55;;;13.73;;
325;SDS011;150;52.352;14.058;2023-06-26T05:08:38;12.73;;;10.57;;
325;SDS011;150;52.352;14.058;2023-06-26T05:11:05;12.07;;;9.98;;
325;SDS011;150;52.352;14.058;2023-06-26T05:13:36;10.95;;;9.60;;
325;SDS011;150;52.352;14.058;2023-06-26T05:16:07;10.82;;;10.25;;
325;SDS011;150;52.352;14.058;2023-06-26T05:18:41;11.82;;;10.35;;
325;SDS011;150;52.352;14.058;2023-06-26T05:21:19;10.73;;;9.63;;
325;SDS011;150;52.352;14.058;2023-06-26T05:24:05;13.35;;;9.90;;
325;SDS011;150;52.352;14.058;2023-06-26T05:26:40;12.05;;;10.55;;
325;SDS011;150;52.352;14.058;2023-06-26T05:29:15;10.68;;;9.55;;
325;SDS011;150;52.352;14.058;2023-06-26T05:31:42;12.68;;;9.80;;
325;SDS011;150;52.352;14.058;2023-06-26T05:34:11;11.75;;;9.88;;
325;SDS011;150;52.352;14.058;2023-06-26T05:36:42;13.23;;;8.93;;
325;SDS011;150;52.352;14.058;2023-06-26T05:39:13;12.43;;;8.73;;
325;SDS011;150;52.352;14.058;2023-06-26T05:41:43;11.83;;;9.70;;
325;SDS011;150;52.352;14.058;2023-06-26T05:44:12;10.10;;;9.15;;
325;SDS011;150;52.352;14.058;2023-06-26T05:46:41;13.82;;;11.43;;
325;SDS011;150;52.352;14.058;2023-06-26T05:49:15;15.32;;;9.65;;
325;SDS011;150;52.352;14.058;2023-06-26T05:51:46;10.40;;;9.20;;
325;SDS011;150;52.352;14.058;2023-06-26T05:54:17;11.00;;;8.00;;
325;SDS011;150;52.352;14.058;2023-06-26T05:56:48;9.70;;;8.60;;
325;SDS011;150;52.352;14.058;2023-06-26T05:59:18;9.70;;;7.82;;
325;SDS011;150;52.352;14.058;2023-06-26T06:01:48;8.82;;;7.85;;
325;SDS011;150;52.352;14.058;2023-06-26T06:04:17;9.50;;;8.38;;
325;SDS011;150;52.352;14.058;2023-06-26T06:06:44;8.77;;;8.25;;
325;SDS011;150;52.352;14.058;2023-06-26T06:09:10;11.30;;;10.50;;
325;SDS011;150;52.352;14.058;2023-06-26T06:11:39;11.82;;;10.77;;
325;SDS011;150;52.352;14.058;2023-06-26T06:14:05;8.90;;;8.15;;
325;SDS011;150;52.352;14.058;2023-06-26T06:16:34;10.70;;;8.40;;
325;SDS011;150;52.352;14.058;2023-06-26T06:19:00;10.77;;;7.43;;
325;SDS011;150;52.352;14.058;2023-06-26T06:21:28;9.50;;;7.82;;
325;SDS011;150;52.352;14.058;2023-06-26T06:23:55;12.48;;;7.90;;
325;SDS011;150;52.352;14.058;2023-06-26T06:26:23;8.37;;;7.10;;
325;SDS011;150;52.352;14.058;2023-06-26T06:28:54;8.48;;;7.50;;
325;SDS011;150;52.352;14.058;2023-06-26T06:31:22;8.82;;;7.68;;
325;SDS011;150;52.352;14.058;2023-06-26T06:33:49;8.82;;;7.50;;
325;SDS011;150;52.352;14.058;2023-06-26T06:36:16;9.30;;;7.50;;
325;SDS011;150;52.352;14.058;2023-06-26T06:38:54;8.20;;;7.10;;
325;SDS011;150;52.352;14.058;2023-06-26T06:41:40;7.50;;;6.87;;
325;SDS011;150;52.352;14.058;2023-06-26T06:44:11;13.95;;;9.30;;
325;SDS011;150;52.352;14.058;2023-06-26T06:46:50;11.38;;;10.57;;
325;SDS011;150;52.352;14.058;2023-06-26T06:49:36;11.18;;;10.07;;
325;SDS011;150;52.352;14.058;2023-06-26T06:52:12;6.78;;;5.90;;
325;SDS011;150;52.352;14.058;2023-06-26T06:54:51;6.60;;;5.63;;
325;SDS011;150;52.352;14.058;2023-06-26T06:57:34;7.33;;;6.33;;
325;SDS011;150;52.352;14.058;2023-06-26T07:00:10;7.75;;;6.03;;
325;SDS011;150;52.352;14.058;2023-06-26T07:02:52;7.00;;;5.90;;
325;SDS011;150;52.352;14.058;2023-06-26T07:05:29;6.57;;;5.57;;
325;SDS011;150;52.352;14.058;2023-06-26T07:08:12;5.93;;;5.60;;
325;SDS011;150;52.352;14.058;2023-06-26T07:10:48;10.77;;;6.05;;
325;SDS011;150;52.352;14.058;2023-06-26T07:13:29;6.60;;;5.85;;
325;SDS011;150;52.352;14.058;2023-06-26T07:16:23;6.22;;;4.00;;
325;SDS011;150;52.352;14.058;2023-06-26T07:19:07;5.75;;;5.05;;
325;SDS011;150;52.352;14.058;2023-06-26T07:21:40;6.13;;;4.90;;
325;SDS011;150;52.352;14.058;2023-06-26T07:24:18;5.05;;;4.60;;
325;SDS011;150;52.352;14.058;2023-06-26T07:27:11;7.13;;;5.47;;
325;SDS011;150;52.352;14.058;2023-06-26T07:32:48;5.87;;;4.33;;
325;SDS011;150;52.352;14.058;2023-06-26T07:35:45;6.28;;;4.70;;
325;SDS011;150;52.352;14.058;2023-06-26T07:38:21;11.15;;;6.82;;
325;SDS011;150;52.352;14.058;2023-06-26T07:40:50;8.80;;;5.80;;
325;SDS011;150;52.352;14.058;2023-06-26T07:43:27;6.47;;;5.10;;
325;SDS011;150;52.352;14.058;2023-06-26T07:45:56;6.15;;;4.70;;
325;SDS011;150;52.352;14.058;2023-06-26T07:51:26;9.65;;;5.10;;
325;SDS011;150;52.352;14.058;2023-06-26T07:54:06;6.60;;;4.68;;
325;SDS011;150;52.352;14.058;2023-06-26T07:56:57;8.70;;;6.78;;
325;SDS011;150;52.352;14.058;2023-06-26T07:59:36;7.68;;;5.20;;
325;SDS011;150;52.352;14.058;2023-06-26T08:02:13;5.05;;;4.80;;
325;SDS011;150;52.352;14.058;2023-06-26T08:08:29;6.70;;;4.43;;
325;SDS011;150;52.352;14.058;2023-06-26T08:11:00;5.70;;;5.00;;
325;SDS011;150;52.352;14.058;2023-06-26T08:13:46;5.38;;;4.20;;
325;SDS011;150;52.352;14.058;2023-06-26T08:16:43;7.30;;;4.20;;
325;SDS011;150;52.352;14.058;2023-06-26T08:19:35;5.18;;;4.20;;
325;SDS011;150;52.352;14.058;2023-06-26T08:22:12;5.63;;;4.22;;
325;SDS011;150;52.352;14.058;2023-06-26T08:25:28;4.53;;;3.77;;
325;SDS011;150;52.352;14.058;2023-06-26T08:28:15;5.60;;;4.47;;
325;SDS011;150;52.352;14.058;2023-06-26T08:30:45;5.43;;;4.45;;
325;SDS011;150;52.352;14.058;2023-06-26T08:33:12;5.97;;;4.85;;
325;SDS011;150;52.352;14.058;2023-06-26T08:35:50;4.57;;;3.90;;
325;SDS011;150;52.352;14.058;2023-06-26T08:38:21;6.85;;;4.78;;
325;SDS011;150;52.352;14.058;2023-06-26T08:40:53;4.90;;;3.80;;
325;SDS011;150;52.352;14.058;2023-06-26T08:43:38;5.38;;;4.05;;
325;SDS011;150;52.352;14.058;2023-06-26T08:46:07;5.63;;;4.60;;
325;SDS011;150;52.352;14.058;2023-06-26T08:48:56;6.07;;;4.07;;
325;SDS011;150;52.352;14.058;2023-06-26T08:51:48;4.70;;;4.40;;
325;SDS011;150;52.352;14.058;2023-06-26T08:54:27;5.43;;;4.18;;
325;SDS011;150;52.352;14.058;2023-06-26T08:57:01;7.07;;;3.90;;
325;SDS011;150;52.352;14.058;2023-06-26T08:59:54;4.97;;;4.25;;
325;SDS011;150;52.352;14.058;2023-06-26T09:02:32;5.15;;;4.20;;
325;SDS011;150;52.352;14.058;2023-06-26T09:05:15;4.97;;;4.47;;
325;SDS011;150;52.352;14.058;2023-06-26T09:07:48;4.13;;;3.40;;
325;SDS011;150;52.352;14.058;2023-06-26T09:10:38;5.25;;;4.00;;
325;SDS011;150;52.352;14.058;2023-06-26T09:16:38;4.97;;;4.10;;
325;SDS011;150;52.352;14.058;2023-06-26T09:19:34;5.47;;;3.78;;
325;SDS011;150;52.352;14.058;2023-06-26T09:22:27;5.30;;;3.88;;
325;SDS011;150;52.352;14.058;2023-06-26T09:25:11;5.63;;;4.03;;
325;SDS011;150;52.352;14.058;2023-06-26T09:28:02;6.45;;;5.30;;
325;SDS011;150;52.352;14.058;2023-06-26T09:31:06;5.70;;;4.25;;
325;SDS011;150;52.352;14.058;2023-06-26T09:33:58;4.40;;;3.67;;
325;SDS011;150;52.352;14.058;2023-06-26T09:36:37;5.55;;;4.00;;
325;SDS011;150;52.352;14.058;2023-06-26T09:39:21;5.22;;;4.18;;
325;SDS011;150;52.352;14.058;2023-06-26T09:42:26;5.00;;;4.50;;
325;SDS011;150;52.352;14.058;2023-06-26T09:45:07;4.53;;;3.50;;
325;SDS011;150;52.352;14.058;2023-06-26T09:47:52;6.68;;;4.60;;
325;SDS011;150;52.352;14.058;2023-06-26T09:50:57;4.83;;;4.00;;
325;SDS011;150;52.352;14.058;2023-06-26T09:53:35;5.13;;;3.72;;
325;SDS011;150;52.352;14.058;2023-06-26T09:56:08;3.80;;;3.50;;
325;SDS011;150;52.352;14.058;2023-06-26T09:59:06;4.63;;;3.70;;
325;SDS011;150;52.352;14.058;2023-06-26T10:01:43;4.45;;;3.40;;
325;SDS011;150;52.352;14.058;2023-06-26T10:04:19;6.40;;;4.03;;
325;SDS011;150;52.352;14.058;2023-06-26T10:06:55;4.57;;;3.65;;
325;SDS011;150;52.352;14.058;2023-06-26T10:09:38;4.47;;;3.78;;
325;SDS011;150;52.352;14.058;2023-06-26T10:12:16;4.45;;;3.88;;
325;SDS011;150;52.352;14.058;2023-06-26T10:15:00;4.45;;;3.65;;
325;SDS011;150;52.352;14.058;2023-06-26T10:17:42;5.00;;;4.15;;
325;SDS011;150;52.352;14.058;2023-06-26T10:20:34;5.50;;;3.67;;
325;SDS011;150;52.352;14.058;2023-06-26T10:23:14;5.60;;;4.30;;
325;SDS011;150;52.352;14.058;2023-06-26T10:26:04;4.63;;;3.80;;
325;SDS011;150;52.352;14.058;2023-06-26T10:28:46;4.63;;;3.20;;
325;SDS011;150;52.352;14.058;2023-06-26T10:31:28;5.97;;;3.25;;
325;SDS011;150;52.352;14.058;2023-06-26T10:34:29;4.35;;;3.35;;
325;SDS011;150;52.352;14.058;2023-06-26T10:37:18;4.95;;;3.80;;
325;SDS011;150;52.352;14.058;2023-06-26T10:40:17;6.30;;;4.07;;
325;SDS011;150;52.352;14.058;2023-06-26T10:43:09;4.78;;;3.70;;
325;SDS011;150;52.352;14.058;2023-06-26T10:45:49;5.38;;;3.20;;
325;SDS011;150;52.352;14.058;2023-06-26T10:48:32;3.67;;;3.10;;
325;SDS011;150;52.352;14.058;2023-06-26T10:51:26;6.22;;;3.45;;
325;SDS011;150;52.352;14.058;2023-06-26T10:54:00;5.07;;;3.50;;
325;SDS011;150;52.352;14.058;2023-06-26T10:56:59;6.25;;;3.50;;
325;SDS011;150;52.352;14.058;2023-06-26T10:59:52;6.13;;;3.13;;
325;SDS011;150;52.352;14.058;2023-06-26T11:03:06;4.40;;;3.50;;
325;SDS011;150;52.352;14.058;2023-06-26T11:06:12;4.00;;;3.40;;
325;SDS011;150;52.352;14.058;2023-06-26T11:08:49;4.07;;;3.38;;
325;SDS011;150;52.352;14.058;2023-06-26T11:12:05;4.38;;;3.60;;
325;SDS011;150;52.352;14.058;2023-06-26T11:21:53;4.20;;;3.35;;
325;SDS011;150;52.352;14.058;2023-06-26T11:24:49;4.65;;;3.25;;
325;SDS011;150;52.352;14.058;2023-06-26T11:31:23;4.57;;;3.40;;
325;SDS011;150;52.352;14.058;2023-06-26T11:34:13;3.67;;;3.00;;
325;SDS011;150;52.352;14.058;2023-06-26T11:36:56;5.10;;;3.10;;
325;SDS011;150;52.352;14.058;2023-06-26T11:40:05;5.20;;;3.83;;
325;SDS011;150;52.352;14.058;2023-06-26T11:42:55;5.80;;;5.30;;
325;SDS011;150;52.352;14.058;2023-06-26T11:45:49;4.53;;;3.47;;
325;SDS011;150;52.352;14.058;2023-06-26T11:51:28;4.63;;;3.60;;
325;SDS011;150;52.352;14.058;2023-06-26T11:54:45;4.80;;;3.78;;
325;SDS011;150;52.352;14.058;2023-06-26T11:57:34;4.45;;;3.38;;
325;SDS011;150;52.352;14.058;2023-06-26T12:00:12;4.55;;;3.40;;
325;SDS011;150;52.352;14.058;2023-06-26T12:28:17;4.85;;;3.58;;
325;SDS011;150;52.352;14.058;2023-06-26T12:49:05;5.20;;;4.03;;
325;SDS011;150;52.352;14.058;2023-06-26T12:51:48;6.97;;;4.20;;
325;SDS011;150;52.352;14.058;2023-06-26T12:54:39;4.22;;;3.55;;
325;SDS011;150;52.352;14.058;2023-06-26T13:04:18;5.75;;;3.95;;
325;SDS011;150;52.352;14.058;2023-06-26T13:07:05;4.93;;;3.97;;
325;SDS011;150;52.352;14.058;2023-06-26T13:49:50;5.43;;;4.30;;
325;SDS011;150;52.352;14.058;2023-06-26T13:52:17;5.53;;;4.95;;
325;SDS011;150;52.352;14.058;2023-06-26T13:54:46;4.87;;;4.53;;
325;SDS011;150;52.352;14.058;2023-06-26T13:57:41;4.68;;;4.05;;
325;SDS011;150;52.352;14.058;2023-06-26T14:00:23;4.95;;;4.45;;
325;SDS011;150;52.352;14.058;2023-06-26T14:02:54;5.65;;;4.10;;
325;SDS011;150;52.352;14.058;2023-06-26T14:05:37;5.10;;;4.45;;
325;SDS011;150;52.352;14.058;2023-06-26T14:08:20;5.60;;;4.03;;
325;SDS011;150;52.352;14.058;2023-06-26T14:10:53;6.60;;;4.75;;
325;SDS011;150;52.352;14.058;2023-06-26T14:13:23;4.72;;;4.13;;
325;SDS011;150;52.352;14.058;2023-06-26T14:16:03;8.57;;;7.25;;
325;SDS011;150;52.352;14.058;2023-06-26T14:18:31;5.60;;;4.78;;
325;SDS011;150;52.352;14.058;2023-06-26T14:27:28;6.70;;;4.60;;
325;SDS011;150;52.352;14.058;2023-06-26T14:30:23;6.07;;;4.67;;
325;SDS011;150;52.352;14.058;2023-06-26T14:33:19;6.80;;;4.93;;
325;SDS011;150;52.352;14.058;2023-06-26T14:37:18;5.68;;;4.70;;
325;SDS011;150;52.352;14.058;2023-06-26T14:40:37;7.72;;;6.60;;
325;SDS011;150;52.352;14.058;2023-06-26T14:43:06;6.10;;;4.70;;
325;SDS011;150;52.352;14.058;2023-06-26T14:48:26;6.18;;;5.00;;
325;SDS011;150;52.352;14.058;2023-06-26T14:50:57;6.70;;;4.80;;
325;SDS011;150;52.352;14.058;2023-06-26T15:07:10;5.72;;;4.78;;
325;SDS011;150;52.352;14.058;2023-06-26T15:14:54;9.25;;;4.65;;
325;SDS011;150;52.352;14.058;2023-06-26T15:18:11;6.88;;;3.90;;
325;SDS011;150;52.352;14.058;2023-06-26T15:20:41;7.07;;;4.70;;
325;SDS011;150;52.352;14.058;2023-06-26T15:23:09;5.65;;;3.80;;
325;SDS011;150;52.352;14.058;2023-06-26T15:25:36;6.03;;;4.32;;
325;SDS011;150;52.352;14.058;2023-06-26T15:28:03;8.40;;;5.10;;
325;SDS011;150;52.352;14.058;2023-06-26T15:30:40;9.93;;;6.28;;
325;SDS011;150;52.352;14.058;2023-06-26T15:33:28;12.98;;;7.50;;
325;SDS011;150;52.352;14.058;2023-06-26T15:44:00;10.65;;;8.20;;
325;SDS011;150;52.352;14.058;2023-06-26T15:48:05;10.50;;;9.15;;
325;SDS011;150;52.352;14.058;2023-06-26T16:22:25;8.85;;;7.38;;
325;SDS011;150;52.352;14.058;2023-06-26T17:44:01;5.18;;;4.90;;
325;SDS011;150;52.352;14.058;2023-06-26T17:48:05;9.55;;;6.22;;
325;SDS011;150;52.352;14.058;2023-06-26T18:20:26;7.85;;;6.35;;
325;SDS011;150;52.352;14.058;2023-06-26T18:25:54;8.00;;;7.07;;
325;SDS011;150;52.352;14.058;2023-06-26T18:28:51;8.50;;;6.88;;
325;SDS011;150;52.352;14.058;2023-06-26T18:31:35;7.57;;;6.32;;
325;SDS011;150;52.352;14.058;2023-06-26T18:37:11;9.50;;;7.20;;
325;SDS011;150;52.352;14.058;2023-06-26T18:39:41;10.90;;;6.53;;
325;SDS011;150;52.352;14.058;2023-06-26T18:42:17;9.48;;;6.90;;
325;SDS011;150;52.352;14.058;2023-06-26T18:45:16;8.18;;;7.47;;
325;SDS011;150;52.352;14.058;2023-06-26T18:47:55;7.57;;;7.00;;
325;SDS011;150;52.352;14.058;2023-06-26T18:50:42;7.77;;;7.00;;
325;SDS011;150;52.352;14.058;2023-06-26T18:53:19;9.10;;;7.40;;
325;SDS011;150;52.352;14.058;2023-06-26T18:55:50;8.20;;;7.25;;
325;SDS011;150;52.352;14.058;2023-06-26T18:58:22;9.38;;;7.30;;
325;SDS011;150;52.352;14.058;2023-06-26T19:00:56;9.68;;;6.60;;
325;SDS011;150;52.352;14.058;2023-06-26T19:03:38;7.50;;;7.00;;
325;SDS011;150;52.352;14.058;2023-06-26T19:06:29;7.80;;;6.85;;
325;SDS011;150;52.352;14.058;2023-06-26T19:12:07;8.70;;;7.68;;
325;SDS011;150;52.352;14.058;2023-06-26T19:14:39;9.10;;;7.50;;
325;SDS011;150;52.352;14.058;2023-06-26T19:17:16;9.40;;;7.05;;
325;SDS011;150;52.352;14.058;2023-06-26T19:19:56;9.55;;;7.50;;
325;SDS011;150;52.352;14.058;2023-06-26T19:22:35;9.57;;;7.60;;
325;SDS011;150;52.352;14.058;2023-06-26T19:25:39;9.43;;;7.67;;
325;SDS011;150;52.352;14.058;2023-06-26T19:28:40;9.27;;;7.60;;
325;SDS011;150;52.352;14.058;2023-06-26T19:31:39;8.95;;;6.80;;
325;SDS011;150;52.352;14.058;2023-06-26T19:34:10;10.10;;;7.80;;
325;SDS011;150;52.352;14.058;2023-06-26T19:36:52;8.15;;;7.03;;
325;SDS011;150;52.352;14.058;2023-06-26T19:39:26;7.95;;;7.20;;
325;SDS011;150;52.352;14.058;2023-06-26T19:41:59;8.45;;;7.55;;
325;SDS011;150;52.352;14.058;2023-06-26T19:44:35;9.18;;;7.80;;
325;SDS011;150;52.352;14.058;2023-06-26T19:47:09;7.57;;;7.18;;
325;SDS011;150;52.352;14.058;2023-06-26T19:49:38;7.47;;;7.07;;
325;SDS011;150;52.352;14.058;2023-06-26T19:52:08;9.95;;;7.20;;
325;SDS011;150;52.352;14.058;2023-06-26T19:54:35;9.07;;;7.80;;
325;SDS011;150;52.352;14.058;2023-06-26T19:57:28;9.05;;;8.55;;
325;SDS011;150;52.352;14.058;2023-06-26T20:00:09;12.10;;;8.02;;
325;SDS011;150;52.352;14.058;2023-06-26T20:02:47;10.10;;;7.50;;
325;SDS011;150;52.352;14.058;2023-06-26T20:05:20;8.55;;;7.57;;
325;SDS011;150;52.352;14.058;2023-06-26T20:08:06;13.27;;;7.72;;
325;SDS011;150;52.352;14.058;2023-06-26T20:10:51;9.57;;;7.18;;
325;SDS011;150;52.352;14.058;2023-06-26T20:13:33;8.30;;;6.95;;
325;SDS011;150;52.352;14.058;2023-06-26T20:16:03;7.30;;;6.90;;
325;SDS011;150;52.352;14.058;2023-06-26T20:18:54;9.07;;;7.10;;
325;SDS011;150;52.352;14.058;2023-06-26T20:21:28;8.68;;;8.18;;
325;SDS011;150;52.352;14.058;2023-06-26T20:24:16;8.25;;;7.90;;
325;SDS011;150;52.352;14.058;2023-06-26T20:26:55;10.35;;;9.00;;
325;SDS011;150;52.352;14.058;2023-06-26T20:32:40;11.50;;;9.88;;
325;SDS011;150;52.352;14.058;2023-06-26T20:35:13;10.23;;;7.97;;
325;SDS011;150;52.352;14.058;2023-06-26T20:38:04;9.27;;;8.52;;
325;SDS011;150;52.352;14.058;2023-06-26T20:40:49;10.77;;;8.10;;
325;SDS011;150;52.352;14.058;2023-06-26T20:43:41;10.70;;;8.52;;
325;SDS011;150;52.352;14.058;2023-06-26T20:46:15;9.27;;;7.85;;
325;SDS011;150;52.352;14.058;2023-06-26T20:48:59;10.17;;;8.27;;
325;SDS011;150;52.352;14.058;2023-06-26T20:51:46;13.03;;;8.50;;
325;SDS011;150;52.352;14.058;2023-06-26T20:54:28;9.63;;;8.70;;
325;SDS011;150;52.352;14.058;2023-06-26T20:57:00;9.93;;;8.30;;
325;SDS011;150;52.352;14.058;2023-06-26T20:59:46;9.97;;;9.27;;
325;SDS011;150;52.352;14.058;2023-06-26T21:02:39;11.23;;;9.13;;
325;SDS011;150;52.352;14.058;2023-06-26T21:05:09;11.73;;;8.98;;
325;SDS011;150;52.352;14.058;2023-06-26T21:07:36;12.18;;;10.10;;
325;SDS011;150;52.352;14.058;2023-06-26T21:10:26;20.17;;;9.85;;
325;SDS011;150;52.352;14.058;2023-06-26T21:13:01;12.27;;;9.95;;
325;SDS011;150;52.352;14.058;2023-06-26T21:15:42;10.15;;;9.13;;
325;SDS011;150;52.352;14.058;2023-06-26T21:18:22;11.17;;;8.80;;
325;SDS011;150;52.352;14.058;2023-06-26T21:20:55;11.60;;;9.27;;
325;SDS011;150;52.352;14.058;2023-06-26T21:23:27;9.20;;;8.50;;
325;SDS011;150;52.352;14.058;2023-06-26T21:25:53;12.05;;;8.60;;
325;SDS011;150;52.352;14.058;2023-06-26T21:28:26;9.05;;;7.53;;
325;SDS011;150;52.352;14.058;2023-06-26T21:31:06;7.70;;;7.30;;